Time;durP1;ratioP1;P1;durP2;ratioP2;P2;SDS_P1;SDS_P2;PMS_P1;PMS_P2;Temp;Humidity;BMP_temperature;BMP_pressure;BME280_temperature;BME280_humidity;BME280_pressure;Samples;Min_cycle;Max_cycle;Signal;HPM_P1;HPM_P2
2023/09/25 00:02:00;;;;;;;7.78;3.90;;;;;;;19.32;67.48;94840.88;5071633;28;20097;-74
2023/09/25 00:04:27;;;;;;;6.70;3.88;;;;;;;19.29;68.74;94853.59;5089991;28;20089;-74
2023/09/25 00:06:52;;;;;;;7.25;3.90;;;;;;;19.31;68.93;94843.72;5088735;28;20111;-74
2023/09/25 00:09:18;;;;;;;13.43;4.60;;;;;;;19.27;69.16;94847.69;5087262;28;20035;-74
2023/09/25 00:11:44;;;;;;;8.13;4.10;;;;;;;19.32;68.18;94855.88;5090234;28;20051;-74
2023/09/25 00:14:09;;;;;;;10.38;4.53;;;;;;;19.34;68.37;94861.78;5070452;28;20040;-74
2023/09/25 00:16:35;;;;;;;9.02;3.95;;;;;;;19.34;67.70;94832.81;5089144;28;20093;-74
2023/09/25 00:19:00;;;;;;;6.90;4.25;;;;;;;19.27;67.54;94842.44;5080298;28;20024;-74
2023/09/25 00:21:25;;;;;;;7.18;4.40;;;;;;;19.49;67.55;94857.34;5071348;28;20032;-74
2023/09/25 00:23:51;;;;;;;7.15;3.70;;;;;;;19.22;66.28;94865.84;5075105;28;20560;-73
2023/09/25 00:26:16;;;;;;;9.00;4.53;;;;;;;19.34;66.91;94851.25;5086870;28;20450;-74
2023/09/25 00:28:42;;;;;;;7.72;3.90;;;;;;;19.50;65.86;94852.88;5075557;28;20033;-74
2023/09/25 00:31:09;;;;;;;9.52;3.90;;;;;;;19.29;67.26;94851.78;5091020;28;20039;-74
2023/09/25 00:33:34;;;;;;;8.63;3.38;;;;;;;19.39;67.09;94851.53;5080983;28;20074;-74
2023/09/25 00:36:00;;;;;;;9.50;4.15;;;;;;;19.50;69.32;94853.72;5079243;28;20040;-75
2023/09/25 00:38:26;;;;;;;9.52;3.88;;;;;;;19.36;68.31;94862.41;5067030;28;20039;-74
2023/09/25 00:40:52;;;;;;;9.05;4.05;;;;;;;19.35;69.58;94850.25;5091675;28;20032;-74
2023/09/25 00:43:18;;;;;;;10.18;3.92;;;;;;;19.40;71.42;94861.06;5064355;28;20524;-74
2023/09/25 00:45:44;;;;;;;9.38;4.07;;;;;;;19.31;67.24;94859.53;5055541;28;20049;-74
2023/09/25 00:48:22;;;;;;;8.13;4.20;;;;;;;19.26;69.27;94857.41;5065271;28;20032;-75
2023/09/25 00:50:48;;;;;;;8.05;4.30;;;;;;;19.25;66.71;94874.22;5091974;28;20028;-74
2023/09/25 00:53:15;;;;;;;11.63;4.50;;;;;;;19.22;67.10;94861.38;5086683;28;20042;-74
2023/09/25 00:55:40;;;;;;;7.13;3.97;;;;;;;19.24;68.54;94866.50;5093300;28;20036;-74
2023/09/25 00:58:06;;;;;;;8.38;4.25;;;;;;;19.26;70.63;94861.88;5073290;28;20102;-74
2023/09/25 01:00:35;;;;;;;12.02;4.53;;;;;;;19.22;70.09;94866.66;5092470;28;20024;-74
2023/09/25 01:03:00;;;;;;;8.02;3.72;;;;;;;18.81;71.45;94874.09;5091938;28;20115;-74
2023/09/25 01:05:26;;;;;;;6.45;4.20;;;;;;;18.85;70.22;94865.66;5092106;28;20030;-74
2023/09/25 01:07:52;;;;;;;8.98;3.75;;;;;;;18.79;67.33;94870.81;5073561;28;20417;-74
2023/09/25 01:10:18;;;;;;;7.03;3.80;;;;;;;18.71;69.80;94856.69;5072910;28;20036;-74
2023/09/25 01:12:44;;;;;;;7.47;4.00;;;;;;;18.82;67.73;94883.63;5071387;28;20384;-74
2023/09/25 01:15:09;;;;;;;7.47;3.80;;;;;;;18.81;69.27;94874.91;5074422;28;20046;-74
2023/09/25 01:17:35;;;;;;;11.90;4.22;;;;;;;18.93;71.86;94876.13;5086185;28;20060;-74
2023/09/25 01:20:14;;;;;;;10.45;4.32;;;;;;;18.71;72.26;94864.56;5060499;28;20025;-74
2023/09/25 01:22:46;;;;;;;8.68;4.25;;;;;;;18.23;71.09;94866.53;5072689;28;20032;-74
2023/09/25 01:25:12;;;;;;;9.57;4.50;;;;;;;18.48;69.81;94879.53;5058499;28;20028;-74
2023/09/25 01:27:47;;;;;;;7.22;4.13;;;;;;;18.45;70.41;94874.63;5088580;28;20383;-74
2023/09/25 01:30:13;;;;;;;10.85;4.18;;;;;;;18.50;70.53;94880.19;5065004;28;20501;-74
2023/09/25 01:32:40;;;;;;;5.75;3.90;;;;;;;18.53;68.37;94893.00;5088058;28;20035;-74
2023/09/25 01:35:14;;;;;;;6.40;3.97;;;;;;;18.55;69.49;94896.25;5072885;28;20036;-74
2023/09/25 01:37:40;;;;;;;8.35;4.00;;;;;;;18.52;67.33;94899.22;5088159;28;20032;-74
2023/09/25 01:40:09;;;;;;;6.95;4.00;;;;;;;18.53;66.63;94895.63;5071153;28;20024;-74
2023/09/25 01:42:34;;;;;;;6.85;3.40;;;;;;;18.44;65.64;94865.09;5088168;28;20032;-74
2023/09/25 01:45:00;;;;;;;10.68;3.50;;;;;;;18.60;67.95;94893.94;5086718;28;20039;-74
2023/09/25 01:47:25;;;;;;;5.13;3.42;;;;;;;18.71;65.23;94901.41;5089168;28;20028;-74
2023/09/25 01:49:51;;;;;;;7.85;3.42;;;;;;;18.62;65.25;94886.69;5078946;28;20477;-74
2023/09/25 01:52:17;;;;;;;6.97;4.30;;;;;;;18.59;66.86;94902.81;5074056;28;20032;-74
2023/09/25 01:54:43;;;;;;;6.72;3.40;;;;;;;18.66;66.82;94905.56;5073025;28;20494;-75
2023/09/25 01:57:08;;;;;;;5.65;3.60;;;;;;;18.60;67.24;94899.19;5087939;28;20035;-74
2023/09/25 01:59:34;;;;;;;6.90;3.50;;;;;;;18.59;65.70;94910.72;5074076;28;20089;-74
2023/09/25 02:01:59;;;;;;;7.47;3.63;;;;;;;18.44;65.64;94901.91;5089558;28;20040;-74
2023/09/25 02:04:25;;;;;;;8.10;3.47;;;;;;;18.65;66.57;94923.16;5073862;28;20051;-74
2023/09/25 02:06:50;;;;;;;8.25;3.50;;;;;;;18.50;66.02;94909.13;5071257;28;20094;-74
2023/09/25 02:09:16;;;;;;;9.88;3.78;;;;;;;18.46;67.14;94881.53;5057832;28;20033;-74
2023/09/25 02:11:41;;;;;;;5.18;3.53;;;;;;;18.59;65.80;94902.00;5077933;28;20081;-74
2023/09/25 02:14:07;;;;;;;8.50;3.28;;;;;;;18.53;65.07;94927.19;5073599;28;20033;-74
2023/09/25 02:16:32;;;;;;;5.13;3.38;;;;;;;18.57;64.68;94931.09;5070358;28;20028;-74
2023/09/25 02:18:58;;;;;;;5.38;3.50;;;;;;;18.43;65.30;94927.41;5088639;28;20058;-74
2023/09/25 02:21:23;;;;;;;4.63;3.53;;;;;;;18.43;64.32;94913.44;5070139;28;20033;-74
2023/09/25 02:23:49;;;;;;;5.10;3.50;;;;;;;18.45;64.79;94916.72;5083064;28;20035;-74
2023/09/25 02:26:14;;;;;;;5.57;3.38;;;;;;;18.47;65.27;94925.22;5091592;28;20043;-74
2023/09/25 02:28:39;;;;;;;5.38;3.47;;;;;;;18.46;66.00;94934.94;5088415;28;20077;-75
2023/09/25 02:31:05;;;;;;;6.18;3.80;;;;;;;18.48;65.53;94927.69;5090346;28;20474;-74
2023/09/25 02:33:30;;;;;;;6.25;4.00;;;;;;;18.28;65.14;94895.75;5069785;28;20552;-74
2023/09/25 02:36:05;;;;;;;5.47;3.95;;;;;;;18.48;65.53;94919.81;5052104;28;20490;-74
2023/09/25 02:38:31;;;;;;;7.43;4.55;;;;;;;18.39;66.19;94947.16;5088555;28;20028;-74
2023/09/25 02:40:56;;;;;;;7.00;4.68;;;;;;;18.36;65.74;94944.03;5088672;28;20509;-74
2023/09/25 02:43:22;;;;;;;6.82;4.60;;;;;;;18.40;65.38;94945.34;5072971;28;20024;-74
2023/09/25 02:45:47;;;;;;;8.70;4.65;;;;;;;18.30;65.28;94917.44;5090578;28;20032;-74
2023/09/25 02:48:13;;;;;;;5.97;4.60;;;;;;;18.33;65.86;94939.13;5067232;28;20028;-75
2023/09/25 02:50:38;;;;;;;8.75;4.65;;;;;;;18.36;66.03;94960.66;5082835;28;20028;-74
2023/09/25 02:53:04;;;;;;;7.45;4.65;;;;;;;18.23;66.70;94948.03;5089236;28;20456;-74
2023/09/25 02:55:29;;;;;;;6.65;4.50;;;;;;;18.20;66.87;94958.09;5073001;28;20027;-74
2023/09/25 02:57:54;;;;;;;6.78;4.90;;;;;;;18.12;66.98;94943.16;5069867;28;20523;-74
2023/09/25 03:00:21;;;;;;;6.40;4.97;;;;;;;18.15;66.30;94952.50;5073011;28;20036;-74
2023/09/25 03:02:46;;;;;;;6.40;5.10;;;;;;;18.16;66.17;94947.06;5085010;28;20033;-74
2023/09/25 03:05:12;;;;;;;7.70;5.40;;;;;;;18.21;67.32;94954.44;5071877;28;20490;-74
2023/09/25 03:07:38;;;;;;;8.25;5.78;;;;;;;18.06;66.74;94965.69;5084936;28;20529;-74
2023/09/25 03:10:05;;;;;;;7.28;5.65;;;;;;;18.09;66.82;94965.34;5069938;28;20032;-75
2023/09/25 03:12:30;;;;;;;6.00;5.35;;;;;;;18.11;66.48;94962.56;5089610;28;20028;-74
2023/09/25 03:14:55;;;;;;;6.72;6.03;;;;;;;18.05;66.51;94960.56;5071570;28;20035;-74
2023/09/25 03:17:21;;;;;;;7.35;6.32;;;;;;;18.10;66.92;94966.16;5070133;28;20031;-74
2023/09/25 03:19:50;;;;;;;8.75;6.75;;;;;;;18.00;67.05;94957.66;5073799;28;20036;-74
2023/09/25 03:22:15;;;;;;;9.50;6.50;;;;;;;18.00;67.34;94970.81;5072233;28;20434;-74
2023/09/25 03:24:41;;;;;;;9.52;6.88;;;;;;;18.14;66.67;94977.16;5089523;28;20035;-74
2023/09/25 03:27:07;;;;;;;9.52;7.30;;;;;;;17.95;67.72;94979.19;5069530;28;20153;-74
2023/09/25 03:29:32;;;;;;;9.98;7.25;;;;;;;17.98;67.34;94968.34;5071076;28;20024;-74
2023/09/25 03:31:57;;;;;;;11.77;6.65;;;;;;;18.05;67.40;94979.81;5087959;28;20382;-74
2023/09/25 03:34:23;;;;;;;8.23;6.65;;;;;;;17.90;67.71;94964.91;5069019;28;20079;-74
2023/09/25 03:36:48;;;;;;;12.05;7.70;;;;;;;17.94;68.24;94977.56;5056075;28;20540;-74
2023/09/25 03:39:14;;;;;;;9.05;6.85;;;;;;;18.07;67.46;94979.63;5072078;28;20467;-74
2023/09/25 03:41:39;;;;;;;8.98;7.20;;;;;;;17.94;68.06;94971.44;5088316;28;20035;-74
2023/09/25 03:44:05;;;;;;;8.95;7.18;;;;;;;18.23;67.93;94976.16;5087784;28;20036;-74
2023/09/25 03:46:30;;;;;;;10.23;7.20;;;;;;;17.99;67.94;94971.78;5088384;28;20020;-74
2023/09/25 03:48:56;;;;;;;9.68;7.32;;;;;;;18.01;68.04;94982.94;5086435;28;20478;-75
2023/09/25 03:51:21;;;;;;;8.32;7.20;;;;;;;18.16;67.85;94986.50;5090596;28;20020;-74
2023/09/25 03:53:46;;;;;;;8.60;7.30;;;;;;;18.07;68.08;94975.19;5061403;28;20036;-74
2023/09/25 03:56:12;;;;;;;10.40;7.63;;;;;;;17.86;68.38;94949.47;5088480;28;20044;-74
2023/09/25 03:58:38;;;;;;;9.10;7.80;;;;;;;17.95;68.74;94981.00;5076225;28;20044;-74
2023/09/25 04:01:03;;;;;;;11.13;7.50;;;;;;;17.98;69.04;94988.53;5069604;28;20036;-74
2023/09/25 04:03:29;;;;;;;10.65;8.15;;;;;;;18.07;68.31;94969.13;5052204;28;20457;-74
2023/09/25 04:05:54;;;;;;;12.80;7.95;;;;;;;17.86;68.90;94975.75;5083974;28;20036;-74
2023/09/25 04:08:19;;;;;;;10.15;7.47;;;;;;;18.02;68.57;94982.75;5091436;28;20101;-74
2023/09/25 04:10:45;;;;;;;10.93;8.10;;;;;;;17.83;69.21;94981.34;5073188;28;20387;-74
2023/09/25 04:13:11;;;;;;;10.75;7.45;;;;;;;17.97;69.16;94987.72;5075340;28;20082;-74
2023/09/25 04:15:36;;;;;;;11.18;7.25;;;;;;;18.01;69.54;94977.69;5092968;28;20032;-74
2023/09/25 04:18:06;;;;;;;11.10;8.35;;;;;;;17.99;69.64;94992.81;5089474;28;20047;-74
2023/09/25 04:20:32;;;;;;;11.43;8.13;;;;;;;18.12;68.83;94993.09;5076664;28;20114;-74
2023/09/25 04:22:57;;;;;;;10.63;8.23;;;;;;;17.91;68.83;94972.59;5074511;28;20040;-74
2023/09/25 04:25:22;;;;;;;11.63;8.48;;;;;;;18.01;69.41;94991.66;5093993;28;20027;-74
2023/09/25 04:27:50;;;;;;;10.20;8.45;;;;;;;17.97;69.12;94986.88;5071323;28;20472;-74
2023/09/25 04:30:17;;;;;;;10.02;8.35;;;;;;;17.95;69.18;94988.88;5072409;28;20032;-74
2023/09/25 04:32:46;;;;;;;12.00;9.38;;;;;;;17.78;69.82;94981.03;5056659;28;20505;-74
2023/09/25 04:35:12;;;;;;;13.50;9.40;;;;;;;17.80;70.14;94996.59;5058513;28;20039;-74
2023/09/25 04:37:38;;;;;;;15.15;9.35;;;;;;;17.79;70.18;94985.28;5070789;28;20033;-74
2023/09/25 04:40:23;;;;;;;14.52;10.13;;;;;;;17.74;70.79;94992.00;5085973;28;20044;-73
2023/09/25 04:42:52;;;;;;;12.82;9.98;;;;;;;17.64;71.72;95000.06;5087929;28;20111;-73
2023/09/25 04:45:18;;;;;;;14.27;10.75;;;;;;;17.61;71.44;94992.53;5062347;28;20482;-74
2023/09/25 04:47:47;;;;;;;16.35;11.25;;;;;;;17.67;71.06;95006.78;5080741;28;20498;-74
2023/09/25 04:50:13;;;;;;;15.35;11.00;;;;;;;17.60;71.70;94977.72;5092384;28;20076;-74
2023/09/25 04:52:40;;;;;;;13.98;11.30;;;;;;;17.47;71.29;94953.78;5088557;28;20032;-74
2023/09/25 04:55:06;;;;;;;16.88;11.60;;;;;;;17.70;71.94;94988.88;5072277;28;20029;-74
2023/09/25 04:57:32;;;;;;;15.25;11.50;;;;;;;17.69;71.75;94976.75;5068947;28;20059;-74
2023/09/25 04:59:57;;;;;;;16.70;11.57;;;;;;;17.61;72.43;94995.97;5056774;28;20032;-74
2023/09/25 05:02:22;;;;;;;16.75;12.20;;;;;;;17.65;71.79;94983.31;5084775;28;20033;-74
2023/09/25 05:04:48;;;;;;;14.93;11.52;;;;;;;17.77;71.79;94991.66;5074218;28;20049;-74
2023/09/25 05:07:13;;;;;;;16.45;12.20;;;;;;;17.86;71.19;94988.91;5039787;28;20091;-75
2023/09/25 05:09:39;;;;;;;16.48;12.02;;;;;;;18.01;70.46;94993.47;5079511;28;20040;-74
2023/09/25 05:12:04;;;;;;;17.67;12.85;;;;;;;17.78;71.71;94985.44;5084412;28;20099;-74
2023/09/25 05:14:30;;;;;;;15.65;12.15;;;;;;;17.91;72.41;94992.81;5063054;28;20028;-74
2023/09/25 05:16:55;;;;;;;16.08;13.35;;;;;;;17.94;71.71;94995.94;5072727;28;20067;-73
2023/09/25 05:19:21;;;;;;;19.38;13.57;;;;;;;18.13;71.34;95004.44;5081370;28;20032;-73
2023/09/25 05:21:46;;;;;;;19.15;13.10;;;;;;;18.01;73.04;95014.50;5072244;28;20040;-73
2023/09/25 05:24:12;;;;;;;19.35;13.48;;;;;;;18.02;71.67;95024.00;5087402;28;20028;-73
2023/09/25 05:26:37;;;;;;;18.20;13.98;;;;;;;17.97;72.32;95021.91;5077112;28;20036;-72
2023/09/25 05:29:03;;;;;;;16.42;12.48;;;;;;;17.75;74.02;95017.31;5090650;28;20020;-73
2023/09/25 05:31:28;;;;;;;19.50;13.45;;;;;;;18.06;72.83;95022.69;5069672;28;20048;-73
2023/09/25 05:33:53;;;;;;;16.75;12.30;;;;;;;18.14;71.68;95027.94;5076283;28;20036;-73
2023/09/25 05:36:20;;;;;;;18.45;12.95;;;;;;;17.78;72.72;95019.59;5050656;28;20040;-75
2023/09/25 05:38:45;;;;;;;18.63;12.98;;;;;;;18.00;72.71;95031.25;5069273;28;20036;-73
2023/09/25 05:41:11;;;;;;;18.13;13.95;;;;;;;17.99;72.82;95038.28;5080846;28;20233;-73
2023/09/25 05:43:38;;;;;;;17.00;12.68;;;;;;;18.25;71.07;95042.53;5079971;28;20413;-73
2023/09/25 05:46:04;;;;;;;17.25;12.52;;;;;;;18.15;71.60;95032.19;5054898;28;20391;-74
2023/09/25 05:48:29;;;;;;;14.20;11.63;;;;;;;18.39;70.87;95028.69;5071188;28;20032;-71
2023/09/25 05:50:54;;;;;;;15.32;11.32;;;;;;;18.35;70.89;95039.69;5071387;28;20490;-72
2023/09/25 05:53:21;;;;;;;15.82;11.73;;;;;;;18.38;70.76;95034.91;5064398;28;20031;-72
2023/09/25 05:55:47;;;;;;;16.80;11.38;;;;;;;18.38;70.73;95034.09;5067856;28;20157;-72
2023/09/25 05:58:13;;;;;;;11.93;10.68;;;;;;;18.69;69.90;95044.66;5080138;28;20543;-72
2023/09/25 06:00:44;;;;;;;15.38;10.95;;;;;;;18.80;68.76;95038.22;5067769;28;20025;-71
2023/09/25 06:03:09;;;;;;;12.30;10.27;;;;;;;18.82;68.59;95044.97;5076697;28;20490;-73
2023/09/25 06:05:36;;;;;;;14.52;10.90;;;;;;;18.77;69.02;95047.28;5086156;28;20035;-72
2023/09/25 06:08:01;;;;;;;13.93;10.32;;;;;;;18.65;69.71;95048.63;5078824;28;20032;-71
2023/09/25 06:10:26;;;;;;;14.93;10.07;;;;;;;18.41;69.81;95024.03;5074355;28;20029;-73
2023/09/25 06:12:52;;;;;;;12.30;9.70;;;;;;;18.73;69.00;95051.22;5082235;28;20032;-73
2023/09/25 06:15:18;;;;;;;13.93;9.82;;;;;;;18.55;69.70;95054.09;5085137;28;20031;-73
2023/09/25 06:17:44;;;;;;;12.23;9.02;;;;;;;18.38;70.00;95042.78;5066932;28;20039;-73
2023/09/25 06:20:15;;;;;;;11.65;9.05;;;;;;;18.59;69.38;95059.84;5072741;28;20036;-73
2023/09/25 06:22:43;;;;;;;10.70;8.10;;;;;;;18.74;68.77;95064.22;5075429;28;20538;-72
2023/09/25 06:25:16;;;;;;;11.60;9.38;;;;;;;18.66;68.96;95064.22;5054599;28;20047;-73
2023/09/25 06:27:44;;;;;;;12.65;9.32;;;;;;;18.83;68.60;95072.09;5036487;28;20055;-72
2023/09/25 06:30:10;;;;;;;11.57;9.25;;;;;;;18.92;68.01;95076.34;5070100;28;20063;-73
2023/09/25 06:32:36;;;;;;;13.30;10.07;;;;;;;18.83;67.44;95049.22;5051928;28;20103;-73
2023/09/25 06:35:01;;;;;;;10.80;8.88;;;;;;;19.04;67.75;95074.13;5068425;28;20509;-73
2023/09/25 06:37:27;;;;;;;12.05;9.90;;;;;;;19.14;67.77;95067.66;5068294;28;20040;-73
2023/09/25 06:39:52;;;;;;;12.23;9.52;;;;;;;19.27;67.24;95085.50;5051787;28;20486;-73
2023/09/25 06:42:18;;;;;;;12.30;9.48;;;;;;;19.52;65.97;95075.63;5068251;28;20529;-73
2023/09/25 06:44:43;;;;;;;11.45;9.80;;;;;;;19.56;65.95;95081.41;5052920;28;20547;-73
2023/09/25 06:47:09;;;;;;;17.52;10.48;;;;;;;19.66;66.03;95079.34;5071429;28;20033;-73
2023/09/25 06:49:34;;;;;;;15.27;9.38;;;;;;;19.57;65.91;95064.59;5080905;28;20028;-73
2023/09/25 06:52:00;;;;;;;11.80;9.20;;;;;;;19.79;65.07;95087.50;5073032;28;20520;-73
2023/09/25 06:54:26;;;;;;;12.52;10.15;;;;;;;19.82;64.78;95081.06;5072920;28;20031;-73
2023/09/25 06:56:51;;;;;;;14.40;10.38;;;;;;;19.97;64.35;95086.34;5053408;28;20392;-73
2023/09/25 06:59:17;;;;;;;13.13;10.07;;;;;;;20.57;62.23;95097.84;5079244;28;20044;-73
2023/09/25 07:01:42;;;;;;;13.20;10.35;;;;;;;20.41;62.22;95082.97;5073327;28;20032;-73
2023/09/25 07:04:08;;;;;;;15.40;10.98;;;;;;;20.40;61.53;95098.00;5091421;28;20042;-73
2023/09/25 07:06:33;;;;;;;14.75;11.05;;;;;;;20.81;60.90;95097.56;5089508;28;20028;-73
2023/09/25 07:08:59;;;;;;;16.42;11.65;;;;;;;20.94;60.24;95089.00;5091381;28;20312;-73
2023/09/25 07:11:24;;;;;;;14.30;10.63;;;;;;;21.07;60.41;95083.06;5091006;28;20024;-73
2023/09/25 07:13:50;;;;;;;14.25;10.20;;;;;;;21.09;59.08;95081.88;5090026;28;20406;-73
2023/09/25 07:16:15;;;;;;;13.13;10.65;;;;;;;21.15;58.90;95098.81;5090126;28;20490;-73
2023/09/25 07:18:41;;;;;;;12.13;10.82;;;;;;;21.16;58.56;95095.97;5089873;28;20032;-73
2023/09/25 07:21:06;;;;;;;12.65;10.55;;;;;;;21.05;58.92;95092.97;5090918;28;20044;-73
2023/09/25 07:23:32;;;;;;;12.02;10.13;;;;;;;21.00;58.21;95087.44;5091152;28;20239;-73
2023/09/25 07:26:10;;;;;;;11.88;9.90;;;;;;;21.00;57.45;95079.50;5089871;28;20033;-72
2023/09/25 07:28:36;;;;;;;11.15;9.85;;;;;;;20.93;57.88;95093.47;5074176;28;20039;-72
2023/09/25 07:31:01;;;;;;;11.80;9.75;;;;;;;20.94;55.96;95068.69;5089895;28;20040;-73
2023/09/25 07:33:28;;;;;;;10.90;9.27;;;;;;;21.12;56.39;95094.72;5089605;28;20032;-73
2023/09/25 07:35:54;;;;;;;12.20;8.88;;;;;;;20.98;56.09;95095.56;5089716;28;20126;-73
2023/09/25 07:38:19;;;;;;;13.95;8.65;;;;;;;20.96;56.43;95101.00;5090853;28;20520;-72
2023/09/25 07:40:46;;;;;;;7.72;6.68;;;;;;;20.74;55.50;95099.28;5086603;28;20035;-72
2023/09/25 07:43:11;;;;;;;9.30;8.30;;;;;;;20.78;56.28;95105.84;5072907;28;20043;-72
2023/09/25 07:45:38;;;;;;;9.27;7.88;;;;;;;20.75;56.95;95101.78;5089953;28;20405;-72
2023/09/25 07:48:05;;;;;;;9.77;7.43;;;;;;;20.89;56.67;95105.38;5072411;28;20120;-72
2023/09/25 07:50:31;;;;;;;12.15;8.75;;;;;;;20.98;57.30;95088.44;5069071;28;20035;-73
2023/09/25 07:52:58;;;;;;;11.20;8.18;;;;;;;21.57;54.93;95106.00;5067728;28;20029;-73
2023/09/25 07:55:24;;;;;;;11.35;9.07;;;;;;;21.59;55.96;95101.34;5068736;28;20121;-73
2023/09/25 07:57:50;;;;;;;12.30;8.88;;;;;;;21.63;56.59;95096.50;5067778;28;20053;-73
2023/09/25 08:02:47;;;;;;;9.30;7.20;;;;;;;22.15;52.33;95111.22;5069695;28;20039;-72
2023/09/25 08:05:19;;;;;;;7.28;5.70;;;;;;;21.82;50.09;95090.59;5052796;28;20033;-73
2023/09/25 08:07:46;;;;;;;6.43;5.55;;;;;;;21.92;51.46;95100.00;5069291;28;20422;-72
2023/09/25 08:10:11;;;;;;;7.82;5.38;;;;;;;21.96;51.54;95093.34;5069460;28;20119;-72
2023/09/25 08:12:37;;;;;;;7.28;6.30;;;;;;;21.91;51.27;95098.38;5052569;28;20104;-73
2023/09/25 08:15:02;;;;;;;6.80;6.10;;;;;;;21.68;52.51;95080.91;5070668;28;20040;-72
2023/09/25 08:17:28;;;;;;;8.40;6.07;;;;;;;21.95;50.79;95091.69;5069218;28;20033;-72
2023/09/25 08:19:54;;;;;;;7.65;5.40;;;;;;;21.96;51.15;95096.81;5052633;28;20024;-71
2023/09/25 08:22:20;;;;;;;6.88;5.78;;;;;;;22.10;51.11;95105.66;5052463;28;20040;-71
2023/09/25 08:24:46;;;;;;;7.18;4.25;;;;;;;21.92;49.45;95100.00;5070589;28;20086;-71
2023/09/25 08:27:12;;;;;;;8.88;4.97;;;;;;;21.80;50.46;95079.38;5070273;28;20072;-71
2023/09/25 08:29:37;;;;;;;5.80;4.40;;;;;;;22.15;50.19;95092.69;5069141;28;20029;-71
2023/09/25 08:32:03;;;;;;;4.78;4.28;;;;;;;22.13;49.82;95084.13;5069015;28;20028;-71
2023/09/25 08:34:28;;;;;;;7.70;4.20;;;;;;;22.32;48.43;95081.84;5070115;28;20043;-71
2023/09/25 08:36:53;;;;;;;7.03;4.68;;;;;;;22.40;48.99;95086.97;5068931;28;20032;-71
2023/09/25 08:39:19;;;;;;;6.47;4.63;;;;;;;22.27;48.84;95091.16;5052355;28;20478;-71
2023/09/25 08:41:45;;;;;;;5.88;4.60;;;;;;;22.38;48.55;95091.66;5069011;28;20025;-71
2023/09/25 08:44:12;;;;;;;5.78;4.38;;;;;;;22.28;50.74;95102.56;5068913;28;20032;-71
2023/09/25 08:46:38;;;;;;;6.65;4.05;;;;;;;22.35;49.73;95092.88;5069056;28;20332;-71
2023/09/25 08:49:03;;;;;;;5.60;4.05;;;;;;;22.29;48.94;95085.69;5070150;28;20029;-72
2023/09/25 08:51:34;;;;;;;5.38;4.00;;;;;;;22.24;50.28;95096.84;5073269;28;20032;-71
2023/09/25 08:54:00;;;;;;;6.53;4.00;;;;;;;22.22;49.50;95093.56;5040510;28;20043;-71
2023/09/25 08:56:25;;;;;;;5.20;3.85;;;;;;;22.07;48.97;95085.72;5073611;28;20418;-72
2023/09/25 08:58:50;;;;;;;4.60;3.75;;;;;;;22.09;49.70;95088.13;5055619;28;20529;-71
2023/09/25 09:01:17;;;;;;;4.55;3.58;;;;;;;21.78;49.85;95091.13;5055718;28;20468;-71
2023/09/25 09:03:43;;;;;;;4.22;3.65;;;;;;;21.82;49.78;95085.28;5055687;28;20115;-71
2023/09/25 09:06:08;;;;;;;4.65;3.90;;;;;;;21.86;49.37;95094.47;5072251;28;20036;-71
2023/09/25 09:08:33;;;;;;;4.53;3.70;;;;;;;21.75;50.53;95094.97;5073384;28;20438;-71
2023/09/25 09:10:59;;;;;;;4.50;3.47;;;;;;;21.84;51.16;95085.94;5055330;28;20495;-71
2023/09/25 09:13:24;;;;;;;5.00;3.67;;;;;;;21.69;50.92;95087.81;5055064;28;20037;-71
2023/09/25 09:15:50;;;;;;;5.13;3.63;;;;;;;21.81;50.31;95091.59;5038837;28;20043;-72
2023/09/25 09:18:23;;;;;;;5.25;3.60;;;;;;;21.92;50.51;95105.28;5072070;28;20032;-71
2023/09/25 09:20:49;;;;;;;5.78;3.50;;;;;;;21.74;49.25;95097.81;5072048;28;20093;-71
2023/09/25 09:23:17;;;;;;;4.38;3.60;;;;;;;21.73;50.10;95098.81;5055275;28;20025;-70
2023/09/25 09:25:49;;;;;;;4.63;3.50;;;;;;;21.62;49.08;95077.19;5071826;28;20059;-70
2023/09/25 09:28:14;;;;;;;4.22;3.58;;;;;;;21.72;49.44;95097.19;5072995;28;20532;-71
2023/09/25 09:30:43;;;;;;;4.30;3.13;;;;;;;21.90;49.10;95099.38;5073458;28;20033;-71
2023/09/25 09:33:09;;;;;;;5.80;3.03;;;;;;;21.67;50.06;95095.09;5071677;28;20039;-71
2023/09/25 09:35:34;;;;;;;6.22;3.70;;;;;;;21.78;49.36;95091.13;5055198;28;20024;-71
2023/09/25 09:38:02;;;;;;;4.50;3.70;;;;;;;21.85;49.09;95090.19;5081761;28;20043;-71
2023/09/25 09:40:27;;;;;;;5.72;3.60;;;;;;;21.89;49.13;95092.47;5091750;28;20039;-71
2023/09/25 09:42:53;;;;;;;5.90;3.20;;;;;;;21.87;49.00;95087.38;5074556;28;20127;-70
2023/09/25 09:45:19;;;;;;;4.70;3.53;;;;;;;21.82;49.86;95087.94;5093250;28;20032;-71
2023/09/25 09:47:45;;;;;;;7.05;3.67;;;;;;;21.94;49.84;95090.88;5091814;28;20035;-71
2023/09/25 09:50:11;;;;;;;6.85;3.55;;;;;;;21.97;49.28;95073.81;5074900;28;20024;-71
2023/09/25 09:52:39;;;;;;;5.10;3.50;;;;;;;22.11;49.72;95090.59;5071014;28;20052;-70
2023/09/25 09:55:05;;;;;;;3.75;3.17;;;;;;;22.20;48.28;95095.59;5054898;28;20036;-71
2023/09/25 09:57:31;;;;;;;6.32;3.55;;;;;;;22.25;49.60;95087.09;5054577;28;20503;-71
2023/09/25 09:59:56;;;;;;;6.38;3.50;;;;;;;22.30;48.02;95082.03;5054676;28;20067;-71
2023/09/25 10:02:22;;;;;;;7.43;3.88;;;;;;;22.27;49.56;95075.28;5071323;28;20025;-71
2023/09/25 10:04:47;;;;;;;7.35;3.60;;;;;;;22.44;48.57;95089.06;5054709;28;20116;-71
2023/09/25 10:07:13;;;;;;;7.40;3.38;;;;;;;22.26;47.85;95094.84;5071059;28;20502;-71
2023/09/25 10:09:38;;;;;;;4.55;3.05;;;;;;;22.02;47.78;95097.88;5071116;28;20051;-70
2023/09/25 10:12:04;;;;;;;5.38;3.15;;;;;;;22.02;48.23;95097.88;5051197;28;20029;-71
2023/09/25 10:14:30;;;;;;;5.35;2.80;;;;;;;21.97;46.63;95087.84;5071008;28;20410;-70
2023/09/25 10:17:04;;;;;;;4.38;3.13;;;;;;;21.95;47.91;95087.22;5054100;28;20041;-70
2023/09/25 10:19:37;;;;;;;7.88;3.75;;;;;;;22.03;47.47;95079.16;5072293;28;20029;-71
2023/09/25 10:22:06;;;;;;;5.63;3.10;;;;;;;21.94;48.06;95084.78;5071868;28;20426;-71
2023/09/25 10:24:33;;;;;;;3.77;2.90;;;;;;;22.17;46.56;95084.53;5070811;28;20028;-71
2023/09/25 10:26:59;;;;;;;4.68;3.20;;;;;;;22.27;46.00;95090.34;5054118;28;20025;-71
2023/09/25 10:29:24;;;;;;;5.80;2.90;;;;;;;22.29;46.42;95081.22;5071997;28;20040;-71
2023/09/25 10:31:49;;;;;;;5.20;3.13;;;;;;;22.34;46.15;95074.53;5053946;28;20033;-71
2023/09/25 10:34:16;;;;;;;3.88;3.03;;;;;;;22.44;46.15;95075.81;5053589;28;20418;-71
2023/09/25 10:36:45;;;;;;;6.40;3.55;;;;;;;22.54;46.10;95080.78;5053973;28;20036;-71
2023/09/25 10:39:14;;;;;;;5.65;2.80;;;;;;;22.34;45.25;95048.06;5054255;28;20025;-71
2023/09/25 10:41:41;;;;;;;3.30;2.67;;;;;;;22.69;46.31;95078.81;5070417;28;20036;-71
2023/09/25 10:44:06;;;;;;;4.22;2.72;;;;;;;22.62;46.07;95077.97;5071550;28;20036;-71
2023/09/25 10:46:32;;;;;;;3.88;3.00;;;;;;;;;;5070367;28;20473;-71
2023/09/25 10:48:57;;;;;;;5.20;3.13;;;;;;;22.37;46.13;95077.63;5071572;28;20478;-71
2023/09/25 10:51:23;;;;;;;4.90;3.10;;;;;;;22.39;46.82;95085.34;5070249;28;20460;-72
2023/09/25 10:53:48;;;;;;;3.30;3.00;;;;;;;22.25;46.48;95071.22;5069974;28;20133;-71
2023/09/25 10:56:15;;;;;;;4.32;2.83;;;;;;;22.38;45.54;95078.44;5070221;28;20025;-71
2023/09/25 10:58:40;;;;;;;4.68;3.30;;;;;;;22.40;45.82;95076.38;5071280;28;20048;-71
2023/09/25 11:01:06;;;;;;;4.90;2.83;;;;;;;22.40;45.93;95063.16;5070023;28;20036;-71
2023/09/25 11:03:31;;;;;;;5.90;3.35;;;;;;;22.42;46.51;95071.72;5071068;28;20024;-71
2023/09/25 11:05:57;;;;;;;5.00;2.80;;;;;;;22.57;46.33;95068.97;5071149;28;20036;-71
2023/09/25 11:08:25;;;;;;;6.35;3.15;;;;;;;22.55;46.99;95068.34;5069825;28;20035;-71
2023/09/25 11:10:50;;;;;;;4.75;3.25;;;;;;;22.70;45.65;95069.03;5053399;28;20025;-71
2023/09/25 11:13:16;;;;;;;8.07;3.33;;;;;;;22.76;46.51;95073.53;5069475;28;20086;-71
2023/09/25 11:15:41;;;;;;;4.75;2.92;;;;;;;22.68;46.89;95068.44;5070053;28;20036;-71
2023/09/25 11:18:07;;;;;;;4.15;3.20;;;;;;;22.72;46.91;95065.19;5053094;28;20103;-71
2023/09/25 11:20:33;;;;;;;4.90;3.20;;;;;;;22.71;46.47;95066.22;5071612;28;20029;-71
2023/09/25 11:23:09;;;;;;;5.15;3.67;;;;;;;22.72;47.37;95067.81;5053032;28;20075;-71
2023/09/25 11:25:44;;;;;;;7.55;3.50;;;;;;;22.62;46.91;95066.53;5053188;28;20028;-71
2023/09/25 11:28:13;;;;;;;4.65;3.05;;;;;;;22.71;46.96;95068.84;5069726;28;20036;-71